createdAt,value
2023-04-24T00:02:07.848Z,0.30
2023-04-24T00:07:09.786Z,0.20
2023-04-24T00:12:11.112Z,0.30
2023-04-24T00:17:12.459Z,0.40
2023-04-24T00:22:15.506Z,0.20
2023-04-24T00:27:16.851Z,0.30
2023-04-24T00:32:18.972Z,0.20
2023-04-24T00:37:20.650Z,0.45
2023-04-24T00:42:22.005Z,0.30
2023-04-24T00:47:23.467Z,0.30
2023-04-24T00:52:25.248Z,0.50
2023-04-24T00:57:27.364Z,0.30
2023-04-24T01:02:28.843Z,0.20
2023-04-24T01:07:30.501Z,0.30
2023-04-24T01:12:31.872Z,0.30
2023-04-24T01:17:33.756Z,0.30
2023-04-24T01:22:35.709Z,0.30
2023-04-24T01:27:37.109Z,0.40
2023-04-24T01:32:39.581Z,0.30
2023-04-24T01:37:41.157Z,0.22
2023-04-24T01:42:43.482Z,0.30
2023-04-24T01:47:45.052Z,0.30
2023-04-24T01:52:46.489Z,0.32
2023-04-24T01:57:48.022Z,0.20
2023-04-24T02:02:50.239Z,0.38
2023-04-24T02:07:51.688Z,0.30
2023-04-24T02:12:53.091Z,0.30
2023-04-24T02:17:54.462Z,0.43
2023-04-24T02:22:56.075Z,0.30
2023-04-24T02:27:57.463Z,0.38
2023-04-24T02:32:58.833Z,0.40
2023-04-24T02:38:00.307Z,0.28
2023-04-24T02:43:01.771Z,0.30
2023-04-24T02:48:03.238Z,0.30
2023-04-24T02:53:04.804Z,0.25
2023-04-24T02:58:06.855Z,0.35
2023-04-24T03:03:08.344Z,0.70
2023-04-24T03:08:09.827Z,0.30
2023-04-24T03:13:11.177Z,0.40
2023-04-24T03:18:12.617Z,0.30
2023-04-24T03:23:14.073Z,0.45
2023-04-24T03:28:15.493Z,0.30
2023-04-24T03:33:16.866Z,0.45
2023-04-24T03:38:18.201Z,0.30
2023-04-24T03:43:19.557Z,0.30
2023-04-24T03:48:20.871Z,0.65
2023-04-24T03:53:22.715Z,0.40
2023-04-24T03:58:24.103Z,0.50
2023-04-24T04:03:26.418Z,0.47
2023-04-24T04:08:28.020Z,0.40
2023-04-24T04:13:29.345Z,0.40
2023-04-24T04:18:30.834Z,0.35
2023-04-24T04:23:32.991Z,0.30
2023-04-24T04:28:35.792Z,0.40
2023-04-24T04:33:39.076Z,0.40
2023-04-24T04:38:42.862Z,0.40
2023-04-24T04:43:44.465Z,0.60
2023-04-24T04:48:46.695Z,0.73
2023-04-24T04:53:48.003Z,0.30
2023-04-24T04:58:49.355Z,0.40
2023-04-24T05:03:50.843Z,0.45
2023-04-24T05:08:52.284Z,0.40
2023-04-24T05:13:53.635Z,0.30
2023-04-24T05:18:54.999Z,0.50
2023-04-24T05:23:56.333Z,0.30
2023-04-24T05:28:57.674Z,0.30
2023-04-24T05:33:59.065Z,0.50
2023-04-24T05:39:00.588Z,0.50
2023-04-24T05:44:02.007Z,1.27
2023-04-24T05:49:03.664Z,0.70
2023-04-24T05:54:05.065Z,0.60
2023-04-24T05:59:06.480Z,0.80
2023-04-24T06:04:08.238Z,0.80
2023-04-24T06:09:09.651Z,0.63
2023-04-24T06:14:11.088Z,1.08
2023-04-24T06:19:12.513Z,0.80
2023-04-24T06:24:15.413Z,1.08
2023-04-24T06:29:16.757Z,1.10
2023-04-24T06:34:18.109Z,0.95
2023-04-24T06:39:19.484Z,1.30
2023-04-24T06:44:21.003Z,1.23
2023-04-24T06:49:22.333Z,1.23
2023-04-24T06:54:23.732Z,1.33
2023-04-24T06:59:25.897Z,1.00
2023-04-24T07:04:27.535Z,1.67
2023-04-24T07:09:29.365Z,1.00
2023-04-24T07:14:30.818Z,1.65
2023-04-24T07:19:32.485Z,1.10
2023-04-24T07:24:33.966Z,1.73
2023-04-24T07:29:35.376Z,1.50
2023-04-24T07:34:36.769Z,0.90
2023-04-24T07:39:38.105Z,0.80
2023-04-24T07:44:39.430Z,0.60
2023-04-24T07:49:42.349Z,1.05
2023-04-24T07:54:44.212Z,0.80
2023-04-24T07:59:45.899Z,0.95
2023-04-24T08:04:47.521Z,0.70
2023-04-24T08:09:49.026Z,1.10
2023-04-24T08:14:50.528Z,0.93
2023-04-24T08:19:53.298Z,0.95
2023-04-24T08:24:55.467Z,0.73
2023-04-24T08:29:58.280Z,0.65
2023-04-24T08:35:00.320Z,0.73
2023-04-24T08:40:06.586Z,0.80
2023-04-24T08:45:08.557Z,0.73
2023-04-24T08:50:12.930Z,0.70
2023-04-24T08:55:15.791Z,0.90
2023-04-24T09:00:17.949Z,0.70
2023-04-24T09:05:21.372Z,0.70
2023-04-24T09:10:24.263Z,0.82
2023-04-24T09:15:25.805Z,0.70
2023-04-24T09:20:27.154Z,0.75
2023-04-24T09:25:37.085Z,0.80
2023-04-24T09:30:38.512Z,0.70
2023-04-24T09:35:44.408Z,0.70
2023-04-24T09:40:45.795Z,0.80
2023-04-24T09:45:47.226Z,0.80
2023-04-24T09:50:52.885Z,0.77
2023-04-24T09:55:54.432Z,0.60
2023-04-24T10:00:57.726Z,0.50
2023-04-24T10:06:00.736Z,0.70
2023-04-24T10:11:03.022Z,0.85
2023-04-24T10:16:05.232Z,0.75
2023-04-24T10:21:07.404Z,0.80
2023-04-24T10:26:10.678Z,0.80
2023-04-24T10:31:13.605Z,0.77
2023-04-24T10:36:16.522Z,0.90
2023-04-24T10:41:21.595Z,1.67
2023-04-24T10:46:23.199Z,1.17
2023-04-24T10:51:26.762Z,1.02
2023-04-24T10:56:28.262Z,1.00
2023-04-24T11:01:33.135Z,1.13
2023-04-24T11:06:37.031Z,0.63
2023-04-24T11:11:45.149Z,1.13
2023-04-24T11:16:53.706Z,0.65
2023-04-24T11:22:03.885Z,1.17
2023-04-24T11:27:05.244Z,0.40
2023-04-24T11:32:41.161Z,0.40
2023-04-24T11:37:45.276Z,0.28
2023-04-24T11:42:50.971Z,0.50
2023-04-24T11:47:52.673Z,0.30
2023-04-24T11:52:54.591Z,0.30
2023-04-24T11:58:00.536Z,0.40
2023-04-24T12:03:10.094Z,0.30
2023-04-24T12:08:11.722Z,0.30
2023-04-24T12:13:14.251Z,0.50
2023-04-24T12:18:18.004Z,0.40
2023-04-24T12:23:36.509Z,0.40
2023-04-24T12:28:39.693Z,0.50
2023-04-24T12:33:41.108Z,0.50
2023-04-24T12:38:45.433Z,0.40
2023-04-24T12:43:54.482Z,0.43
2023-04-24T12:48:55.916Z,0.65
2023-04-24T12:53:57.542Z,0.57
2023-04-24T12:58:59.021Z,0.50
2023-04-24T13:04:00.626Z,0.60
2023-04-24T13:09:02.110Z,0.68
2023-04-24T13:14:03.517Z,0.50
2023-04-24T13:19:05.033Z,0.80
2023-04-24T13:24:08.662Z,0.90
2023-04-24T13:29:10.289Z,0.90
2023-04-24T13:34:11.759Z,1.10
2023-04-24T13:39:13.855Z,1.05
2023-04-24T13:44:16.670Z,0.65
2023-04-24T13:49:18.086Z,0.70
2023-04-24T13:54:19.416Z,1.15
2023-04-24T13:59:22.546Z,1.13
2023-04-24T14:04:24.221Z,1.60
2023-04-24T14:09:25.748Z,1.23
2023-04-24T14:14:27.567Z,1.35
2023-04-24T14:19:28.892Z,1.27
2023-04-24T14:24:30.250Z,1.02
2023-04-24T14:29:32.342Z,0.90
2023-04-24T14:34:35.160Z,1.00
2023-04-24T14:39:36.540Z,1.10
2023-04-24T14:44:37.953Z,1.02
2023-04-24T14:49:39.326Z,0.80
2023-04-24T14:54:40.959Z,0.80
2023-04-24T14:59:42.382Z,0.80
2023-04-24T15:04:44.108Z,1.05
2023-04-24T15:09:48.030Z,1.52
2023-04-24T15:14:49.472Z,0.85
2023-04-24T15:19:50.849Z,0.60
2023-04-24T15:24:52.170Z,1.00
2023-04-24T15:29:54.554Z,0.90
2023-04-24T15:35:07.088Z,1.33
2023-04-24T15:40:12.121Z,1.02
2023-04-24T15:45:14.911Z,1.40
2023-04-24T15:50:20.429Z,1.10
2023-04-24T15:55:21.871Z,0.70
2023-04-24T16:00:23.362Z,0.93
2023-04-24T16:05:24.696Z,0.93
2023-04-24T16:10:26.733Z,1.10
2023-04-24T16:15:28.226Z,1.00
2023-04-24T16:20:29.575Z,0.90
2023-04-24T16:25:31.042Z,1.05
2023-04-24T16:30:32.475Z,1.00
2023-04-24T16:35:33.826Z,1.05
2023-04-24T16:40:35.297Z,1.30
2023-04-24T16:45:36.629Z,0.90
2023-04-24T16:50:38.123Z,0.95
2023-04-24T16:55:39.490Z,0.70
2023-04-24T17:00:41.036Z,0.98
2023-04-24T17:05:42.473Z,0.80
2023-04-24T17:10:43.855Z,1.10
2023-04-24T17:15:45.293Z,1.00
2023-04-24T17:20:46.606Z,1.10
2023-04-24T17:25:48.850Z,1.45
2023-04-24T17:30:50.264Z,0.90
2023-04-24T17:35:51.730Z,0.80
2023-04-24T17:40:53.277Z,1.10
2023-04-24T17:45:59.849Z,1.10
2023-04-24T17:51:01.235Z,1.27
2023-04-24T17:56:03.796Z,1.30
2023-04-24T18:01:05.508Z,1.27
2023-04-24T18:06:07.041Z,1.23
2023-04-24T18:11:08.394Z,1.52
2023-04-24T18:16:09.825Z,1.30
2023-04-24T18:21:11.334Z,1.13
2023-04-24T18:26:17.021Z,1.48
2023-04-24T18:31:18.494Z,1.80
2023-04-24T18:36:20.223Z,1.85
2023-04-24T18:41:21.567Z,1.25
2023-04-24T18:46:22.919Z,1.85
2023-04-24T18:51:24.348Z,2.33
2023-04-24T18:56:25.727Z,1.65
2023-04-24T19:01:27.210Z,1.60
2023-04-24T19:06:28.680Z,1.77
2023-04-24T19:11:30.211Z,2.13
2023-04-24T19:16:31.627Z,1.73
2023-04-24T19:21:34.074Z,2.00
2023-04-24T19:26:35.480Z,2.35
2023-04-24T19:31:36.847Z,2.00
2023-04-24T19:36:38.293Z,2.45
2023-04-24T19:41:39.701Z,1.70
2023-04-24T19:46:41.156Z,2.30
2023-04-24T19:51:42.579Z,3.33
2023-04-24T19:56:44.266Z,2.75
2023-04-24T20:01:45.901Z,2.92
2023-04-24T20:06:47.433Z,3.47
2023-04-24T20:11:51.227Z,3.35
2023-04-24T20:16:54.227Z,3.17
2023-04-24T20:21:55.661Z,3.28
2023-04-24T20:26:57.037Z,2.78
2023-04-24T20:31:58.484Z,2.63
2023-04-24T20:36:59.871Z,2.20
2023-04-24T20:42:01.241Z,2.17
2023-04-24T20:47:02.760Z,2.00
2023-04-24T20:52:04.277Z,2.25
2023-04-24T20:57:05.679Z,2.10
2023-04-24T21:02:07.406Z,1.70
2023-04-24T21:07:10.193Z,2.45
2023-04-24T21:12:11.651Z,1.85
2023-04-24T21:17:13.003Z,1.77
2023-04-24T21:22:14.398Z,1.63
2023-04-24T21:27:15.803Z,2.00
2023-04-24T21:32:17.243Z,2.60
2023-04-24T21:37:18.611Z,1.70
2023-04-24T21:42:19.985Z,1.88
2023-04-24T21:47:21.353Z,2.33
2023-04-24T21:52:22.859Z,2.17
2023-04-24T21:57:24.245Z,2.47
2023-04-24T22:02:25.681Z,2.35
2023-04-24T22:07:27.131Z,2.72
2023-04-24T22:12:28.503Z,2.72
2023-04-24T22:17:30.328Z,3.40
2023-04-24T22:22:31.739Z,3.03
2023-04-24T22:27:35.544Z,3.58
2023-04-24T22:32:37.342Z,3.67
2023-04-24T22:37:39.232Z,4.60
2023-04-24T22:42:40.587Z,4.40
2023-04-24T22:47:42.089Z,4.63
2023-04-24T22:52:44.011Z,5.30
2023-04-24T22:57:45.611Z,5.10
2023-04-24T23:02:47.098Z,5.88
2023-04-24T23:07:48.510Z,5.70
2023-04-24T23:12:50.202Z,5.85
2023-04-24T23:17:51.580Z,6.45
2023-04-24T23:22:53.496Z,6.40
2023-04-24T23:27:55.005Z,5.82
2023-04-24T23:32:56.489Z,6.43
2023-04-24T23:37:58.022Z,6.60
2023-04-24T23:43:06.865Z,6.53
2023-04-24T23:48:09.164Z,5.35
2023-04-24T23:53:10.773Z,7.30
2023-04-24T23:58:12.101Z,6.15
